createdAt,value
2019-02-10T00:01:18.953Z,17.37
2019-02-10T00:03:47.595Z,15.50
2019-02-10T00:06:24.331Z,18.57
2019-02-10T00:08:46.635Z,10.87
2019-02-10T00:11:15.238Z,13.43
2019-02-10T00:13:43.859Z,8.93
2019-02-10T00:16:20.057Z,8.27
2019-02-10T00:18:48.648Z,15.27
2019-02-10T00:21:17.265Z,16.70
2019-02-10T00:23:45.915Z,17.50
2019-02-10T00:26:14.551Z,15.47
2019-02-10T00:28:43.195Z,10.57
2019-02-10T00:31:11.813Z,18.13
2019-02-10T00:33:40.470Z,26.30
2019-02-10T00:36:09.106Z,20.43
2019-02-10T00:38:37.700Z,16.37
2019-02-10T00:41:06.293Z,25.03
2019-02-10T00:43:34.893Z,14.53
2019-02-10T00:46:03.503Z,16.57
2019-02-10T00:48:32.123Z,15.00
2019-02-10T00:51:00.792Z,12.10
2019-02-10T00:53:29.351Z,8.57
2019-02-10T00:55:57.922Z,13.47
2019-02-10T00:58:26.539Z,12.40
2019-02-10T01:00:55.155Z,15.47
2019-02-10T01:03:24.094Z,16.60
2019-02-10T01:05:52.718Z,16.67
2019-02-10T01:08:21.403Z,12.87
2019-02-10T01:10:50.026Z,21.00
2019-02-10T01:13:18.604Z,17.10
2019-02-10T01:15:47.182Z,14.73
2019-02-10T01:18:15.818Z,12.60
2019-02-10T01:20:44.425Z,16.07
2019-02-10T01:23:12.992Z,11.63
2019-02-10T01:25:41.587Z,14.37
2019-02-10T01:28:10.180Z,10.33
2019-02-10T01:30:38.822Z,14.10
2019-02-10T01:33:07.390Z,17.20
2019-02-10T01:35:35.988Z,12.40
2019-02-10T01:38:04.857Z,12.53
2019-02-10T01:40:33.479Z,19.80
2019-02-10T01:43:02.110Z,10.87
2019-02-10T01:45:30.788Z,16.70
2019-02-10T01:47:59.387Z,14.33
2019-02-10T01:50:27.997Z,13.27
2019-02-10T01:52:56.598Z,11.37
2019-02-10T01:55:25.253Z,10.83
2019-02-10T01:57:53.944Z,7.17
2019-02-10T02:00:22.598Z,9.70
2019-02-10T02:02:51.171Z,15.73
2019-02-10T02:05:19.753Z,14.17
2019-02-10T02:07:48.383Z,7.90
2019-02-10T02:10:16.999Z,15.27
2019-02-10T02:12:45.673Z,15.57
2019-02-10T02:15:15.080Z,13.13
2019-02-10T02:17:43.749Z,14.05
2019-02-10T02:20:12.571Z,22.27
2019-02-10T02:22:41.204Z,15.77
2019-02-10T02:25:10.720Z,18.53
2019-02-10T02:27:39.297Z,16.73
2019-02-10T02:30:13.536Z,12.63
2019-02-10T02:32:42.067Z,14.83
2019-02-10T02:35:10.732Z,11.13
2019-02-10T02:37:39.325Z,16.17
2019-02-10T02:40:09.405Z,15.93
2019-02-10T02:42:38.046Z,13.77
2019-02-10T02:45:08.509Z,6.77
2019-02-10T02:47:37.103Z,16.40
2019-02-10T02:50:06.939Z,13.33
2019-02-10T02:52:35.569Z,10.60
2019-02-10T02:55:04.364Z,11.77
2019-02-10T02:57:33.064Z,9.50
2019-02-10T03:00:01.707Z,12.53
2019-02-10T03:02:30.321Z,10.57
2019-02-10T03:04:58.973Z,11.50
2019-02-10T03:07:27.607Z,16.63
2019-02-10T03:09:56.207Z,11.70
2019-02-10T03:12:24.764Z,7.20
2019-02-10T03:14:53.407Z,18.57
2019-02-10T03:17:22.058Z,10.83
2019-02-10T03:19:50.642Z,9.97
2019-02-10T03:22:19.205Z,7.70
2019-02-10T03:24:47.942Z,13.60
2019-02-10T03:27:16.530Z,12.87
2019-02-10T03:29:45.130Z,19.27
2019-02-10T03:32:13.871Z,15.20
2019-02-10T03:34:42.408Z,11.23
2019-02-10T03:37:10.978Z,7.23
2019-02-10T03:39:39.603Z,13.93
2019-02-10T03:42:08.260Z,9.23
2019-02-10T03:44:37.013Z,13.00
2019-02-10T03:47:05.611Z,11.43
2019-02-10T03:49:34.233Z,9.77
2019-02-10T03:52:02.837Z,13.47
2019-02-10T03:54:31.422Z,10.90
2019-02-10T03:57:00.026Z,18.63
2019-02-10T03:59:28.633Z,10.47
2019-02-10T04:01:57.317Z,15.70
2019-02-10T04:04:25.934Z,11.00
2019-02-10T04:06:54.548Z,12.70
2019-02-10T04:09:23.171Z,15.07
2019-02-10T04:11:51.791Z,14.33
2019-02-10T04:14:20.386Z,8.33
2019-02-10T04:16:48.985Z,10.90
2019-02-10T04:19:17.557Z,13.23
2019-02-10T04:21:46.216Z,13.27
2019-02-10T04:24:14.787Z,11.57
2019-02-10T04:26:43.419Z,10.13
2019-02-10T04:29:12.021Z,9.57
2019-02-10T04:31:40.622Z,10.20
2019-02-10T04:34:09.257Z,6.53
2019-02-10T04:36:37.851Z,8.23
2019-02-10T04:39:06.604Z,17.33
2019-02-10T04:41:35.259Z,11.30
2019-02-10T04:44:03.860Z,11.47
2019-02-10T04:46:32.480Z,7.73
2019-02-10T04:49:01.105Z,9.93
2019-02-10T04:51:29.805Z,13.28
2019-02-10T04:53:58.366Z,9.40
2019-02-10T04:56:26.998Z,13.27
2019-02-10T04:58:55.586Z,10.73
2019-02-10T05:01:24.168Z,10.27
2019-02-10T05:03:52.768Z,11.53
2019-02-10T05:06:21.378Z,6.20
2019-02-10T05:08:49.978Z,9.83
2019-02-10T05:11:18.558Z,14.80
2019-02-10T05:13:47.145Z,11.13
2019-02-10T05:16:15.789Z,10.03
2019-02-10T05:18:44.367Z,7.53
2019-02-10T05:21:13.027Z,10.10
2019-02-10T05:23:41.720Z,10.33
2019-02-10T05:26:10.455Z,10.33
2019-02-10T05:28:39.083Z,7.83
2019-02-10T05:31:07.644Z,6.23
2019-02-10T05:33:36.261Z,7.20
2019-02-10T05:36:05.219Z,7.23
2019-02-10T05:38:33.879Z,9.10
2019-02-10T05:41:02.470Z,10.93
2019-02-10T05:43:31.232Z,5.13
2019-02-10T05:45:59.889Z,7.90
2019-02-10T05:48:28.508Z,4.93
2019-02-10T05:50:57.104Z,5.70
2019-02-10T05:53:25.740Z,8.97
2019-02-10T05:55:54.327Z,9.17
2019-02-10T05:58:22.887Z,5.90
2019-02-10T06:00:51.489Z,9.80
2019-02-10T06:03:20.130Z,5.73
2019-02-10T06:05:48.692Z,5.63
2019-02-10T06:08:17.372Z,4.57
2019-02-10T06:10:45.951Z,7.13
2019-02-10T06:13:14.613Z,8.30
2019-02-10T06:15:43.192Z,6.90
2019-02-10T06:18:11.828Z,4.63
2019-02-10T06:20:40.480Z,8.23
2019-02-10T06:23:09.076Z,5.07
2019-02-10T06:25:37.654Z,5.07
2019-02-10T06:28:06.296Z,7.90
2019-02-10T06:30:34.887Z,7.10
2019-02-10T06:33:03.488Z,5.00
2019-02-10T06:35:32.101Z,7.60
2019-02-10T06:38:00.789Z,3.63
2019-02-10T06:40:29.430Z,5.97
2019-02-10T06:42:58.054Z,4.60
2019-02-10T06:45:26.665Z,5.70
2019-02-10T06:47:55.302Z,4.47
2019-02-10T06:50:23.951Z,5.17
2019-02-10T06:52:52.573Z,7.30
2019-02-10T06:55:21.211Z,8.47
2019-02-10T06:57:49.845Z,2.87
2019-02-10T07:00:36.610Z,4.10
2019-02-10T07:03:49.048Z,3.50
2019-02-10T07:06:17.685Z,3.73
2019-02-10T07:08:46.312Z,5.37
2019-02-10T07:11:15.016Z,3.77
2019-02-10T07:13:46.042Z,4.13
2019-02-10T07:16:37.680Z,2.63
2019-02-10T07:19:42.470Z,3.43
2019-02-10T07:23:00.680Z,4.17
2019-02-10T07:25:49.628Z,4.17
2019-02-10T07:28:46.819Z,3.93
2019-02-10T07:31:19.673Z,4.03
2019-02-10T07:34:11.005Z,2.53
2019-02-10T07:37:03.114Z,4.30
2019-02-10T07:39:54.553Z,3.87
2019-02-10T07:42:51.540Z,3.50
2019-02-10T07:45:38.299Z,3.00
2019-02-10T07:48:21.679Z,3.27
2019-02-10T07:51:12.622Z,5.17
2019-02-10T07:53:53.409Z,2.10
2019-02-10T07:57:18.805Z,4.83
2019-02-10T08:00:05.292Z,1.93
2019-02-10T08:03:21.637Z,3.03
2019-02-10T08:06:37.930Z,3.23
2019-02-10T08:09:53.744Z,5.53
2019-02-10T08:12:48.290Z,2.27
2019-02-10T08:16:01.255Z,6.10
2019-02-10T08:18:41.246Z,3.40
2019-02-10T08:21:32.260Z,2.67
2019-02-10T08:24:45.654Z,3.47
2019-02-10T08:28:07.809Z,4.43
2019-02-10T08:31:05.779Z,11.47
2019-02-10T08:33:41.948Z,2.63
2019-02-10T08:36:41.919Z,3.77
2019-02-10T08:39:50.930Z,2.07
2019-02-10T08:42:55.907Z,2.40
2019-02-10T08:45:43.902Z,3.50
2019-02-10T08:48:59.554Z,4.53
2019-02-10T08:52:06.802Z,2.57
2019-02-10T08:54:35.402Z,2.10
2019-02-10T08:57:04.049Z,4.37
2019-02-10T08:59:32.733Z,3.20
2019-02-10T09:02:01.356Z,2.57
2019-02-10T09:04:29.966Z,2.80
2019-02-10T09:06:59.413Z,1.93
2019-02-10T09:09:28.090Z,2.10
2019-02-10T09:11:56.746Z,2.50
2019-02-10T09:14:25.388Z,2.63
2019-02-10T09:16:53.995Z,3.63
2019-02-10T09:19:22.604Z,1.63
2019-02-10T09:21:51.221Z,4.20
2019-02-10T09:24:19.824Z,2.50
2019-02-10T09:26:48.464Z,1.47
2019-02-10T09:29:17.048Z,2.00
2019-02-10T09:31:45.666Z,1.40
2019-02-10T09:34:14.227Z,2.33
2019-02-10T09:36:42.859Z,2.17
2019-02-10T09:39:11.450Z,1.63
2019-02-10T09:41:40.046Z,1.57
2019-02-10T09:44:08.640Z,3.10
2019-02-10T09:46:37.256Z,4.33
2019-02-10T09:49:05.859Z,2.03
2019-02-10T09:51:34.457Z,2.00
2019-02-10T09:54:03.047Z,3.10
2019-02-10T09:56:31.632Z,1.50
2019-02-10T09:59:00.228Z,2.13
2019-02-10T10:01:28.869Z,3.05
2019-02-10T10:03:57.473Z,2.20
2019-02-10T10:06:26.056Z,2.67
2019-02-10T10:08:54.750Z,2.30
2019-02-10T10:11:23.333Z,2.03
2019-02-10T10:13:53.246Z,6.17
2019-02-10T10:16:21.750Z,2.10
2019-02-10T10:18:56.505Z,3.87
2019-02-10T10:21:25.097Z,3.00
2019-02-10T10:23:53.683Z,1.90
2019-02-10T10:26:22.283Z,2.67
2019-02-10T10:28:50.997Z,2.47
2019-02-10T10:31:19.636Z,3.20
2019-02-10T10:33:48.267Z,1.90
2019-02-10T10:36:16.898Z,3.47
2019-02-10T10:38:45.599Z,3.70
2019-02-10T10:41:14.191Z,3.27
2019-02-10T10:43:42.812Z,2.47
2019-02-10T10:46:11.539Z,4.03
2019-02-10T10:48:40.209Z,3.30
2019-02-10T10:51:08.809Z,1.77
2019-02-10T10:53:37.429Z,1.27
2019-02-10T10:56:06.028Z,3.07
2019-02-10T10:58:34.619Z,1.77
2019-02-10T11:01:03.222Z,1.97
2019-02-10T11:03:31.951Z,3.87
2019-02-10T11:06:00.556Z,4.30
2019-02-10T11:08:29.192Z,2.13
2019-02-10T11:10:57.879Z,3.60
2019-02-10T11:13:26.681Z,1.90
2019-02-10T11:15:57.176Z,2.33
2019-02-10T11:18:25.721Z,2.77
2019-02-10T11:20:54.321Z,2.00
2019-02-10T11:23:22.930Z,1.27
2019-02-10T11:25:51.527Z,2.97
2019-02-10T11:28:20.168Z,3.80
2019-02-10T11:30:48.799Z,2.10
2019-02-10T11:33:17.409Z,1.43
2019-02-10T11:35:45.999Z,1.57
2019-02-10T11:38:14.583Z,1.83
2019-02-10T11:40:43.205Z,1.83
2019-02-10T11:43:11.797Z,2.83
2019-02-10T11:45:40.374Z,1.67
2019-02-10T11:48:08.992Z,1.22
2019-02-10T11:50:37.566Z,3.83
2019-02-10T11:53:06.272Z,3.43
2019-02-10T11:55:34.933Z,1.80
2019-02-10T11:58:03.671Z,5.23
2019-02-10T12:00:32.268Z,3.00
2019-02-10T12:03:00.910Z,0.73
2019-02-10T12:05:29.988Z,5.35
2019-02-10T12:07:58.683Z,1.97
2019-02-10T12:10:27.294Z,1.50
2019-02-10T12:12:55.877Z,4.40
2019-02-10T12:15:25.198Z,1.50
2019-02-10T12:17:53.869Z,1.03
2019-02-10T12:20:22.550Z,1.13
2019-02-10T12:22:51.186Z,4.93
2019-02-10T12:25:19.824Z,1.00
2019-02-10T12:27:48.437Z,1.77
2019-02-10T12:30:17.237Z,4.13
2019-02-10T12:32:46.071Z,1.67
2019-02-10T12:35:14.682Z,4.67
2019-02-10T12:37:45.029Z,2.47
2019-02-10T12:40:13.832Z,1.70
2019-02-10T12:42:42.557Z,1.43
2019-02-10T12:45:11.267Z,1.23
2019-02-10T12:47:39.938Z,2.30
2019-02-10T12:50:09.697Z,1.87
2019-02-10T12:52:38.312Z,1.50
2019-02-10T12:55:06.952Z,1.77
2019-02-10T12:57:35.569Z,2.13
2019-02-10T13:00:04.889Z,1.50
2019-02-10T13:02:33.545Z,1.17
2019-02-10T13:05:02.164Z,3.13
2019-02-10T13:07:30.781Z,1.47
2019-02-10T13:09:59.418Z,4.30
2019-02-10T13:12:27.978Z,2.10
2019-02-10T13:14:56.612Z,5.27
2019-02-10T13:17:25.207Z,2.07
2019-02-10T13:19:53.859Z,3.50
2019-02-10T13:22:22.489Z,5.67
2019-02-10T13:24:51.180Z,6.53
2019-02-10T13:27:19.814Z,4.67
2019-02-10T13:29:48.401Z,1.93
2019-02-10T13:32:17.042Z,3.00
2019-02-10T13:34:45.682Z,2.73
2019-02-10T13:37:14.311Z,2.70
2019-02-10T13:39:42.940Z,2.53
2019-02-10T13:42:12.022Z,2.57
2019-02-10T13:44:40.605Z,1.57
2019-02-10T13:47:09.202Z,2.53
2019-02-10T13:49:37.848Z,1.23
2019-02-10T13:52:06.456Z,1.03
2019-02-10T13:54:35.119Z,1.57
2019-02-10T13:57:03.728Z,4.50
2019-02-10T13:59:32.367Z,1.10
2019-02-10T14:02:01.009Z,2.33
2019-02-10T14:04:29.595Z,1.37
2019-02-10T14:06:58.264Z,0.73
2019-02-10T14:09:26.881Z,3.17
2019-02-10T14:11:55.464Z,1.93
2019-02-10T14:14:24.034Z,0.93
2019-02-10T14:16:52.617Z,1.20
2019-02-10T14:19:21.215Z,1.13
2019-02-10T14:21:49.831Z,0.90
2019-02-10T14:24:18.456Z,0.60
2019-02-10T14:26:47.051Z,1.37
2019-02-10T14:29:15.674Z,0.30
2019-02-10T14:31:44.748Z,0.17
2019-02-10T14:34:13.392Z,1.03
2019-02-10T14:36:42.031Z,0.87
2019-02-10T14:39:10.660Z,0.30
2019-02-10T14:41:39.499Z,0.70
2019-02-10T14:44:08.111Z,0.80
2019-02-10T14:46:36.746Z,0.37
2019-02-10T14:49:05.932Z,0.73
2019-02-10T14:51:34.538Z,0.60
2019-02-10T14:54:03.141Z,0.57
2019-02-10T14:56:31.916Z,2.57
2019-02-10T14:59:00.541Z,0.63
2019-02-10T15:01:30.352Z,2.03
2019-02-10T15:03:59.021Z,1.27
2019-02-10T15:06:27.607Z,0.93
2019-02-10T15:08:56.229Z,0.10
2019-02-10T15:11:24.878Z,1.67
2019-02-10T15:13:53.600Z,0.33
2019-02-10T15:16:22.218Z,0.40
2019-02-10T15:18:50.850Z,1.17
2019-02-10T15:21:19.747Z,0.57
2019-02-10T15:23:48.644Z,3.07
2019-02-10T15:26:17.293Z,0.50
2019-02-10T15:28:45.897Z,0.70
2019-02-10T15:31:14.577Z,0.87
2019-02-10T15:33:43.316Z,0.13
2019-02-10T15:36:11.960Z,0.40
2019-02-10T15:38:40.540Z,1.07
2019-02-10T15:41:09.347Z,1.33
2019-02-10T15:43:37.940Z,1.13
2019-02-10T15:46:06.542Z,1.20
2019-02-10T15:48:35.172Z,0.33
2019-02-10T15:51:03.856Z,1.43
2019-02-10T15:53:32.549Z,0.70
2019-02-10T15:56:01.592Z,1.03
2019-02-10T15:58:30.276Z,1.13
2019-02-10T16:00:59.400Z,0.63
2019-02-10T16:03:28.211Z,1.43
2019-02-10T16:05:56.943Z,0.90
2019-02-10T16:08:25.904Z,0.90
2019-02-10T16:10:58.250Z,1.27
2019-02-10T16:13:27.912Z,1.00
2019-02-10T16:15:56.526Z,0.60
2019-02-10T16:18:25.384Z,2.07
2019-02-10T16:20:53.920Z,1.40
2019-02-10T16:23:22.488Z,1.10
2019-02-10T16:25:51.287Z,0.30
2019-02-10T16:28:19.866Z,0.20
2019-02-10T16:30:48.563Z,0.73
2019-02-10T16:33:17.168Z,0.27
2019-02-10T16:35:45.944Z,0.97
2019-02-10T16:38:14.567Z,0.30
2019-02-10T16:40:45.494Z,0.67
2019-02-10T16:43:14.125Z,0.42
2019-02-10T16:45:42.800Z,0.73
2019-02-10T16:48:11.553Z,0.20
2019-02-10T16:50:40.467Z,0.53
2019-02-10T16:53:09.100Z,1.13
2019-02-10T16:55:37.737Z,0.50
2019-02-10T16:58:06.677Z,3.77
2019-02-10T17:00:35.324Z,0.47
2019-02-10T17:03:04.031Z,2.17
2019-02-10T17:05:33.068Z,0.37
2019-02-10T17:08:01.779Z,2.67
2019-02-10T17:10:30.527Z,0.87
2019-02-10T17:12:59.215Z,1.30
2019-02-10T17:15:27.991Z,0.30
2019-02-10T17:17:56.881Z,0.10
2019-02-10T17:20:25.538Z,0.30
2019-02-10T17:22:57.610Z,0.50
2019-02-10T17:25:26.597Z,0.30
2019-02-10T17:27:55.188Z,4.93
2019-02-10T17:30:23.933Z,0.73
2019-02-10T17:32:52.555Z,0.30
2019-02-10T17:35:21.633Z,1.53
2019-02-10T17:37:50.553Z,26.40
2019-02-10T17:40:26.348Z,30.30
2019-02-10T17:42:54.965Z,28.70
2019-02-10T17:45:23.649Z,14.70
2019-02-10T17:47:52.510Z,11.27
2019-02-10T17:50:21.244Z,11.80
2019-02-10T17:52:49.881Z,15.97
2019-02-10T17:55:18.467Z,2.17
2019-02-10T17:57:47.963Z,9.30
2019-02-10T18:00:17.212Z,4.27
2019-02-10T18:02:45.829Z,4.23
2019-02-10T18:05:14.430Z,2.23
2019-02-10T18:07:43.090Z,3.80
2019-02-10T18:10:12.135Z,4.23
2019-02-10T18:12:40.858Z,6.23
2019-02-10T18:15:26.164Z,4.30
2019-02-10T18:18:16.781Z,1.23
2019-02-10T18:20:58.816Z,0.30
2019-02-10T18:23:43.124Z,0.33
2019-02-10T18:26:43.273Z,0.80
2019-02-10T18:29:22.712Z,0.60
2019-02-10T18:32:08.623Z,0.60
2019-02-10T18:34:48.971Z,1.47
2019-02-10T18:37:25.973Z,0.53
2019-02-10T18:40:09.079Z,3.57
2019-02-10T18:43:00.092Z,1.30
2019-02-10T18:45:46.680Z,1.03
2019-02-10T18:48:31.711Z,0.77
2019-02-10T18:51:06.477Z,1.10
2019-02-10T18:53:58.531Z,0.93
2019-02-10T18:56:46.154Z,2.20
2019-02-10T18:59:40.230Z,1.43
2019-02-10T19:02:35.779Z,0.43
2019-02-10T19:05:15.157Z,1.53
2019-02-10T19:08:11.957Z,1.43
2019-02-10T19:11:17.689Z,0.67
2019-02-10T19:14:05.288Z,0.63
2019-02-10T19:17:05.028Z,0.63
2019-02-10T19:19:43.877Z,0.80
2019-02-10T19:22:30.391Z,1.10
2019-02-10T19:25:20.521Z,0.77
2019-02-10T19:28:26.214Z,0.67
2019-02-10T19:31:16.646Z,1.00
2019-02-10T19:34:00.335Z,0.53
2019-02-10T19:36:46.897Z,1.10
2019-02-10T19:39:52.706Z,0.70
2019-02-10T19:42:31.616Z,0.10
2019-02-10T19:45:25.295Z,1.63
2019-02-10T19:48:10.156Z,0.47
2019-02-10T19:51:03.785Z,2.93
2019-02-10T19:53:52.318Z,0.70
2019-02-10T19:56:55.361Z,0.60
2019-02-10T19:59:51.827Z,1.60
2019-02-10T20:02:42.755Z,1.43
2019-02-10T20:05:23.978Z,0.67
2019-02-10T20:08:14.705Z,1.27
2019-02-10T20:11:05.678Z,0.90
2019-02-10T20:13:43.933Z,0.47
2019-02-10T20:16:23.045Z,1.97
2019-02-10T20:19:10.741Z,0.50
2019-02-10T20:21:58.374Z,0.43
2019-02-10T20:24:53.645Z,0.33
2019-02-10T20:27:43.842Z,0.73
2019-02-10T20:30:33.273Z,0.90
2019-02-10T20:33:27.283Z,0.53
2019-02-10T20:36:24.239Z,0.77
2019-02-10T20:39:14.775Z,2.00
2019-02-10T20:41:47.981Z,0.37
2019-02-10T20:44:41.372Z,0.70
2019-02-10T20:47:21.582Z,0.50
2019-02-10T20:50:12.102Z,0.50
2019-02-10T20:52:59.351Z,0.93
2019-02-10T20:55:56.014Z,2.17
2019-02-10T20:58:44.763Z,1.73
2019-02-10T21:01:22.451Z,0.73
2019-02-10T21:04:07.633Z,0.97
2019-02-10T21:06:54.400Z,0.30
2019-02-10T21:09:42.053Z,0.63
2019-02-10T21:12:25.269Z,1.67
2019-02-10T21:15:12.934Z,2.57
2019-02-10T21:17:54.886Z,0.50
2019-02-10T21:20:42.623Z,1.70
2019-02-10T21:23:24.221Z,1.13
2019-02-10T21:26:06.767Z,0.83
2019-02-10T21:28:57.158Z,3.53
2019-02-10T21:31:56.760Z,0.60
2019-02-10T21:34:37.914Z,0.87
2019-02-10T21:37:23.632Z,1.00
2019-02-10T21:40:11.203Z,0.27
2019-02-10T21:42:58.848Z,0.43
2019-02-10T21:45:46.470Z,0.23
2019-02-10T21:48:37.123Z,0.50
2019-02-10T21:51:05.753Z,0.60
2019-02-10T21:53:34.387Z,0.73
2019-02-10T21:56:02.943Z,0.80
2019-02-10T21:58:31.535Z,0.70
2019-02-10T22:01:00.281Z,1.53
2019-02-10T22:03:28.889Z,1.00
2019-02-10T22:05:57.612Z,0.67
2019-02-10T22:08:26.222Z,1.00
2019-02-10T22:10:54.797Z,0.60
2019-02-10T22:13:23.400Z,0.67
2019-02-10T22:15:52.026Z,0.40
2019-02-10T22:18:20.648Z,0.47
2019-02-10T22:20:49.261Z,0.60
2019-02-10T22:23:17.947Z,0.60
2019-02-10T22:25:46.604Z,0.50
2019-02-10T22:28:15.214Z,0.17
2019-02-10T22:30:43.863Z,0.57
2019-02-10T22:33:12.512Z,0.30
2019-02-10T22:35:41.106Z,0.60
2019-02-10T22:38:09.722Z,0.30
2019-02-10T22:40:38.307Z,0.43
2019-02-10T22:43:06.961Z,0.77
2019-02-10T22:45:35.583Z,1.17
2019-02-10T22:48:04.266Z,0.40
2019-02-10T22:50:32.893Z,0.23
2019-02-10T22:53:01.739Z,0.60
2019-02-10T22:55:30.345Z,0.40
2019-02-10T22:57:58.989Z,0.50
2019-02-10T23:00:50.479Z,0.37
2019-02-10T23:03:19.105Z,0.67
2019-02-10T23:05:47.818Z,0.10
2019-02-10T23:08:16.535Z,0.40
2019-02-10T23:10:45.105Z,0.50
2019-02-10T23:13:13.763Z,0.30
2019-02-10T23:15:42.338Z,1.13
2019-02-10T23:18:10.898Z,0.10
2019-02-10T23:20:39.526Z,0.70
2019-02-10T23:23:08.206Z,0.50
2019-02-10T23:25:36.850Z,0.37
2019-02-10T23:28:05.439Z,0.50
2019-02-10T23:30:34.053Z,0.20
2019-02-10T23:33:02.726Z,1.00
2019-02-10T23:35:31.321Z,0.20
2019-02-10T23:37:59.903Z,0.30
2019-02-10T23:40:28.533Z,0.90
2019-02-10T23:43:02.223Z,0.30
2019-02-10T23:45:27.500Z,0.30
2019-02-10T23:47:56.192Z,0.20
2019-02-10T23:50:24.806Z,0.40
2019-02-10T23:52:53.428Z,1.00
2019-02-10T23:55:22.015Z,0.70
2019-02-10T23:57:50.598Z,0.20
